sensor_id;sensor_type;location;lat;lon;timestamp;temperature;humidity
46976;DHT22;32724;51.094;6.996;2024-03-23T00:51:28;7.10;99.90
46976;DHT22;32724;51.094;6.996;2024-03-23T00:53:53;7.10;99.90
46976;DHT22;32724;51.094;6.996;2024-03-23T00:56:19;7.10;99.90
46976;DHT22;32724;51.094;6.996;2024-03-23T00:58:45;7.10;99.90
46976;DHT22;32724;51.094;6.996;2024-03-23T01:01:10;7.00;99.90
46976;DHT22;32724;51.094;6.996;2024-03-23T01:03:36;7.00;99.90
46976;DHT22;32724;51.094;6.996;2024-03-23T01:06:02;6.90;99.90
46976;DHT22;32724;51.094;6.996;2024-03-23T01:08:28;6.90;99.90
46976;DHT22;32724;51.094;6.996;2024-03-23T01:11:01;6.70;99.90
46976;DHT22;32724;51.094;6.996;2024-03-23T01:13:28;6.60;99.90
46976;DHT22;32724;51.094;6.996;2024-03-23T01:15:54;6.50;99.90
46976;DHT22;32724;51.094;6.996;2024-03-23T01:18:21;6.50;99.90
46976;DHT22;32724;51.094;6.996;2024-03-23T01:20:47;6.40;99.90
46976;DHT22;32724;51.094;6.996;2024-03-23T01:23:13;6.30;99.90
46976;DHT22;32724;51.094;6.996;2024-03-23T01:25:38;6.30;99.90
46976;DHT22;32724;51.094;6.996;2024-03-23T01:28:04;6.40;99.90
46976;DHT22;32724;51.094;6.996;2024-03-23T01:30:32;6.20;99.90
46976;DHT22;32724;51.094;6.996;2024-03-23T01:32:57;6.20;99.90
46976;DHT22;32724;51.094;6.996;2024-03-23T01:35:23;6.30;99.90
46976;DHT22;32724;51.094;6.996;2024-03-23T01:37:48;6.40;99.90
46976;DHT22;32724;51.094;6.996;2024-03-23T01:40:15;6.40;99.90
46976;DHT22;32724;51.094;6.996;2024-03-23T01:42:41;6.50;99.90
46976;DHT22;32724;51.094;6.996;2024-03-23T01:45:08;6.50;99.90
46976;DHT22;32724;51.094;6.996;2024-03-23T01:47:35;6.50;99.90
46976;DHT22;32724;51.094;6.996;2024-03-23T01:50:01;6.60;99.90
46976;DHT22;32724;51.094;6.996;2024-03-23T01:52:27;6.50;99.90
46976;DHT22;32724;51.094;6.996;2024-03-23T01:54:53;6.40;99.90
46976;DHT22;32724;51.094;6.996;2024-03-23T01:57:19;6.10;99.90
46976;DHT22;32724;51.094;6.996;2024-03-23T01:59:46;6.10;99.90
46976;DHT22;32724;51.094;6.996;2024-03-23T02:02:12;6.20;99.90
46976;DHT22;32724;51.094;6.996;2024-03-23T02:04:38;6.10;99.90
46976;DHT22;32724;51.094;6.996;2024-03-23T02:07:04;6.10;99.90
46976;DHT22;32724;51.094;6.996;2024-03-23T02:09:31;6.20;99.90
46976;DHT22;32724;51.094;6.996;2024-03-23T02:11:57;6.20;99.90
46976;DHT22;32724;51.094;6.996;2024-03-23T02:14:23;6.20;99.90
46976;DHT22;32724;51.094;6.996;2024-03-23T02:16:48;6.20;99.90
46976;DHT22;32724;51.094;6.996;2024-03-23T02:19:14;6.10;99.90
46976;DHT22;32724;51.094;6.996;2024-03-23T02:21:39;6.10;99.90
46976;DHT22;32724;51.094;6.996;2024-03-23T02:24:05;6.20;99.90
46976;DHT22;32724;51.094;6.996;2024-03-23T02:26:31;6.20;99.90
46976;DHT22;32724;51.094;6.996;2024-03-23T02:28:57;6.00;99.90
46976;DHT22;32724;51.094;6.996;2024-03-23T02:31:22;6.00;99.90
46976;DHT22;32724;51.094;6.996;2024-03-23T02:33:48;5.90;99.90
46976;DHT22;32724;51.094;6.996;2024-03-23T02:36:13;5.70;99.90
46976;DHT22;32724;51.094;6.996;2024-03-23T02:38:39;5.60;99.90
46976;DHT22;32724;51.094;6.996;2024-03-23T02:41:04;5.60;99.90
46976;DHT22;32724;51.094;6.996;2024-03-23T02:43:31;5.50;99.90
46976;DHT22;32724;51.094;6.996;2024-03-23T02:45:56;5.50;99.90
46976;DHT22;32724;51.094;6.996;2024-03-23T02:48:22;5.70;99.90
46976;DHT22;32724;51.094;6.996;2024-03-23T02:50:48;5.80;99.90
46976;DHT22;32724;51.094;6.996;2024-03-23T02:53:13;5.80;99.90
46976;DHT22;32724;51.094;6.996;2024-03-23T02:55:39;5.90;99.90
46976;DHT22;32724;51.094;6.996;2024-03-23T02:58:04;5.90;99.90
46976;DHT22;32724;51.094;6.996;2024-03-23T03:00:30;5.90;99.90
46976;DHT22;32724;51.094;6.996;2024-03-23T03:02:55;5.90;99.90
46976;DHT22;32724;51.094;6.996;2024-03-23T03:05:21;5.90;99.90
46976;DHT22;32724;51.094;6.996;2024-03-23T03:07:47;5.70;99.90
46976;DHT22;32724;51.094;6.996;2024-03-23T03:10:12;5.40;99.90
46976;DHT22;32724;51.094;6.996;2024-03-23T03:12:38;5.60;99.90
46976;DHT22;32724;51.094;6.996;2024-03-23T03:15:04;6.00;99.90
46976;DHT22;32724;51.094;6.996;2024-03-23T03:17:30;5.60;99.90
46976;DHT22;32724;51.094;6.996;2024-03-23T03:19:56;5.50;99.90
46976;DHT22;32724;51.094;6.996;2024-03-23T03:22:22;5.40;99.90
46976;DHT22;32724;51.094;6.996;2024-03-23T03:24:48;5.50;99.90
46976;DHT22;32724;51.094;6.996;2024-03-23T03:27:13;5.40;99.90
46976;DHT22;32724;51.094;6.996;2024-03-23T03:29:39;5.30;99.90
46976;DHT22;32724;51.094;6.996;2024-03-23T03:32:05;5.30;99.90
46976;DHT22;32724;51.094;6.996;2024-03-23T03:34:30;5.30;99.90
46976;DHT22;32724;51.094;6.996;2024-03-23T03:36:56;5.40;99.90
46976;DHT22;32724;51.094;6.996;2024-03-23T03:39:22;5.30;99.90
46976;DHT22;32724;51.094;6.996;2024-03-23T03:41:49;5.30;99.90
46976;DHT22;32724;51.094;6.996;2024-03-23T03:44:14;5.30;99.90
46976;DHT22;32724;51.094;6.996;2024-03-23T03:46:40;5.30;99.90
46976;DHT22;32724;51.094;6.996;2024-03-23T03:49:05;5.30;99.90
46976;DHT22;32724;51.094;6.996;2024-03-23T03:51:31;5.30;99.90
46976;DHT22;32724;51.094;6.996;2024-03-23T03:53:57;5.30;99.90
46976;DHT22;32724;51.094;6.996;2024-03-23T03:56:22;5.30;99.90
46976;DHT22;32724;51.094;6.996;2024-03-23T03:58:48;5.30;99.90
46976;DHT22;32724;51.094;6.996;2024-03-23T04:01:14;5.30;99.90
46976;DHT22;32724;51.094;6.996;2024-03-23T04:03:39;5.30;99.90
46976;DHT22;32724;51.094;6.996;2024-03-23T04:06:09;5.30;99.90
46976;DHT22;32724;51.094;6.996;2024-03-23T04:08:35;5.30;99.90
46976;DHT22;32724;51.094;6.996;2024-03-23T04:11:01;5.50;99.90
46976;DHT22;32724;51.094;6.996;2024-03-23T04:13:27;5.60;99.90
46976;DHT22;32724;51.094;6.996;2024-03-23T04:15:56;5.60;99.90
46976;DHT22;32724;51.094;6.996;2024-03-23T04:18:22;5.60;99.90
46976;DHT22;32724;51.094;6.996;2024-03-23T04:20:48;5.70;99.90
46976;DHT22;32724;51.094;6.996;2024-03-23T04:23:14;5.70;99.90
46976;DHT22;32724;51.094;6.996;2024-03-23T04:25:40;5.70;99.90
46976;DHT22;32724;51.094;6.996;2024-03-23T04:28:05;5.70;99.90
46976;DHT22;32724;51.094;6.996;2024-03-23T04:30:31;5.80;99.90
46976;DHT22;32724;51.094;6.996;2024-03-23T04:32:57;5.20;99.90
46976;DHT22;32724;51.094;6.996;2024-03-23T04:35:24;5.20;99.90
46976;DHT22;32724;51.094;6.996;2024-03-23T04:37:51;5.20;99.90
46976;DHT22;32724;51.094;6.996;2024-03-23T04:40:21;5.40;99.90
46976;DHT22;32724;51.094;6.996;2024-03-23T04:42:46;5.30;99.90
46976;DHT22;32724;51.094;6.996;2024-03-23T04:45:12;5.20;99.90
46976;DHT22;32724;51.094;6.996;2024-03-23T04:47:38;5.20;99.90
46976;DHT22;32724;51.094;6.996;2024-03-23T04:50:04;5.20;99.90
46976;DHT22;32724;51.094;6.996;2024-03-23T04:52:30;5.20;99.90
46976;DHT22;32724;51.094;6.996;2024-03-23T04:54:56;5.30;99.90
46976;DHT22;32724;51.094;6.996;2024-03-23T04:57:21;5.20;99.90
46976;DHT22;32724;51.094;6.996;2024-03-23T04:59:47;5.30;99.90
46976;DHT22;32724;51.094;6.996;2024-03-23T05:02:13;5.30;99.90
46976;DHT22;32724;51.094;6.996;2024-03-23T05:04:39;5.30;99.90
46976;DHT22;32724;51.094;6.996;2024-03-23T05:07:06;5.30;99.90
46976;DHT22;32724;51.094;6.996;2024-03-23T05:09:31;5.30;99.90
46976;DHT22;32724;51.094;6.996;2024-03-23T05:11:59;5.30;99.90
46976;DHT22;32724;51.094;6.996;2024-03-23T05:14:25;5.30;99.90
46976;DHT22;32724;51.094;6.996;2024-03-23T05:16:51;5.30;99.90
46976;DHT22;32724;51.094;6.996;2024-03-23T05:19:17;5.30;99.90
46976;DHT22;32724;51.094;6.996;2024-03-23T05:21:42;5.50;99.90
46976;DHT22;32724;51.094;6.996;2024-03-23T05:24:08;5.50;99.90
46976;DHT22;32724;51.094;6.996;2024-03-23T05:26:34;5.60;99.90
46976;DHT22;32724;51.094;6.996;2024-03-23T05:29:01;5.60;99.90
46976;DHT22;32724;51.094;6.996;2024-03-23T05:31:28;5.70;99.90
46976;DHT22;32724;51.094;6.996;2024-03-23T05:33:54;5.70;99.90
46976;DHT22;32724;51.094;6.996;2024-03-23T05:36:20;5.70;99.90
46976;DHT22;32724;51.094;6.996;2024-03-23T05:38:45;5.60;99.90
46976;DHT22;32724;51.094;6.996;2024-03-23T05:41:11;5.20;99.90
46976;DHT22;32724;51.094;6.996;2024-03-23T05:43:36;5.30;99.90
46976;DHT22;32724;51.094;6.996;2024-03-23T05:46:02;5.30;99.90
46976;DHT22;32724;51.094;6.996;2024-03-23T05:48:28;5.30;99.90
46976;DHT22;32724;51.094;6.996;2024-03-23T05:50:55;5.30;99.90
46976;DHT22;32724;51.094;6.996;2024-03-23T05:53:21;5.30;99.90
46976;DHT22;32724;51.094;6.996;2024-03-23T05:55:46;5.30;99.90
46976;DHT22;32724;51.094;6.996;2024-03-23T05:58:16;5.30;99.90
46976;DHT22;32724;51.094;6.996;2024-03-23T06:00:42;5.30;99.90
46976;DHT22;32724;51.094;6.996;2024-03-23T06:03:09;5.30;99.90
46976;DHT22;32724;51.094;6.996;2024-03-23T06:05:35;5.30;99.90
46976;DHT22;32724;51.094;6.996;2024-03-23T06:08:01;5.40;99.90
46976;DHT22;32724;51.094;6.996;2024-03-23T06:10:27;5.40;99.90
46976;DHT22;32724;51.094;6.996;2024-03-23T06:12:53;5.40;99.90
46976;DHT22;32724;51.094;6.996;2024-03-23T06:15:19;5.40;99.90
46976;DHT22;32724;51.094;6.996;2024-03-23T06:17:45;5.50;99.90
46976;DHT22;32724;51.094;6.996;2024-03-23T06:20:10;5.40;99.90
46976;DHT22;32724;51.094;6.996;2024-03-23T06:22:36;5.20;99.90
46976;DHT22;32724;51.094;6.996;2024-03-23T06:25:02;5.00;99.90
46976;DHT22;32724;51.094;6.996;2024-03-23T06:27:28;4.90;99.90
46976;DHT22;32724;51.094;6.996;2024-03-23T06:29:53;5.10;99.90
46976;DHT22;32724;51.094;6.996;2024-03-23T06:32:20;5.40;99.90
46976;DHT22;32724;51.094;6.996;2024-03-23T06:34:45;5.60;99.90
46976;DHT22;32724;51.094;6.996;2024-03-23T06:37:11;5.70;99.90
46976;DHT22;32724;51.094;6.996;2024-03-23T06:39:37;5.80;99.90
46976;DHT22;32724;51.094;6.996;2024-03-23T06:42:03;5.80;99.90
46976;DHT22;32724;51.094;6.996;2024-03-23T06:44:29;5.90;99.90
46976;DHT22;32724;51.094;6.996;2024-03-23T06:46:55;5.90;99.90
46976;DHT22;32724;51.094;6.996;2024-03-23T06:49:22;5.80;99.90
46976;DHT22;32724;51.094;6.996;2024-03-23T06:51:47;5.60;99.90
46976;DHT22;32724;51.094;6.996;2024-03-23T06:54:13;5.50;99.90
46976;DHT22;32724;51.094;6.996;2024-03-23T06:56:39;5.40;99.90
46976;DHT22;32724;51.094;6.996;2024-03-23T06:59:04;5.40;99.90
46976;DHT22;32724;51.094;6.996;2024-03-23T07:01:30;5.50;99.90
46976;DHT22;32724;51.094;6.996;2024-03-23T07:03:55;5.50;99.90
46976;DHT22;32724;51.094;6.996;2024-03-23T07:06:21;5.50;99.90
46976;DHT22;32724;51.094;6.996;2024-03-23T07:08:47;5.60;99.90
46976;DHT22;32724;51.094;6.996;2024-03-23T07:11:21;5.80;99.90
46976;DHT22;32724;51.094;6.996;2024-03-23T07:13:49;5.80;99.90
46976;DHT22;32724;51.094;6.996;2024-03-23T07:16:14;5.90;99.90
46976;DHT22;32724;51.094;6.996;2024-03-23T07:18:40;6.10;99.90
46976;DHT22;32724;51.094;6.996;2024-03-23T07:21:05;6.40;99.90
46976;DHT22;32724;51.094;6.996;2024-03-23T07:23:32;6.60;99.90
46976;DHT22;32724;51.094;6.996;2024-03-23T07:25:59;6.50;99.90
46976;DHT22;32724;51.094;6.996;2024-03-23T07:28:24;6.30;99.90
46976;DHT22;32724;51.094;6.996;2024-03-23T07:33:29;6.30;99.90
46976;DHT22;32724;51.094;6.996;2024-03-23T07:35:54;6.40;99.90
46976;DHT22;32724;51.094;6.996;2024-03-23T07:38:20;6.50;99.90
46976;DHT22;32724;51.094;6.996;2024-03-23T07:40:45;6.50;99.90
46976;DHT22;32724;51.094;6.996;2024-03-23T07:43:11;6.60;99.90
46976;DHT22;32724;51.094;6.996;2024-03-23T07:45:37;6.80;99.90
46976;DHT22;32724;51.094;6.996;2024-03-23T07:48:04;6.90;99.90
46976;DHT22;32724;51.094;6.996;2024-03-23T07:50:29;6.90;99.90
46976;DHT22;32724;51.094;6.996;2024-03-23T07:52:55;7.00;99.90
46976;DHT22;32724;51.094;6.996;2024-03-23T07:55:20;7.20;99.90
46976;DHT22;32724;51.094;6.996;2024-03-23T07:57:46;7.40;99.90
46976;DHT22;32724;51.094;6.996;2024-03-23T08:00:12;7.40;99.90
46976;DHT22;32724;51.094;6.996;2024-03-23T08:02:38;7.50;99.90
46976;DHT22;32724;51.094;6.996;2024-03-23T08:05:04;7.70;99.90
46976;DHT22;32724;51.094;6.996;2024-03-23T08:07:30;7.60;99.90
46976;DHT22;32724;51.094;6.996;2024-03-23T08:09:55;7.70;99.90
46976;DHT22;32724;51.094;6.996;2024-03-23T08:12:21;7.90;99.90
46976;DHT22;32724;51.094;6.996;2024-03-23T08:14:47;8.20;99.90
46976;DHT22;32724;51.094;6.996;2024-03-23T08:17:12;8.20;99.90
46976;DHT22;32724;51.094;6.996;2024-03-23T08:19:38;8.30;99.90
46976;DHT22;32724;51.094;6.996;2024-03-23T08:22:03;8.40;99.90
46976;DHT22;32724;51.094;6.996;2024-03-23T08:24:29;8.40;99.90
46976;DHT22;32724;51.094;6.996;2024-03-23T08:26:55;8.30;99.90
46976;DHT22;32724;51.094;6.996;2024-03-23T08:29:21;8.40;99.90
46976;DHT22;32724;51.094;6.996;2024-03-23T08:31:46;8.40;99.90
46976;DHT22;32724;51.094;6.996;2024-03-23T08:34:12;8.60;99.90
46976;DHT22;32724;51.094;6.996;2024-03-23T08:36:37;8.80;99.90
46976;DHT22;32724;51.094;6.996;2024-03-23T08:39:03;8.70;99.90
46976;DHT22;32724;51.094;6.996;2024-03-23T08:41:29;8.60;99.90
46976;DHT22;32724;51.094;6.996;2024-03-23T08:43:54;8.50;99.90
46976;DHT22;32724;51.094;6.996;2024-03-23T08:46:20;8.50;99.90
46976;DHT22;32724;51.094;6.996;2024-03-23T08:48:46;8.40;99.90
46976;DHT22;32724;51.094;6.996;2024-03-23T08:51:15;8.30;99.90
46976;DHT22;32724;51.094;6.996;2024-03-23T08:53:41;8.10;99.90
46976;DHT22;32724;51.094;6.996;2024-03-23T08:56:08;8.00;99.90
46976;DHT22;32724;51.094;6.996;2024-03-23T08:58:34;8.10;99.90
46976;DHT22;32724;51.094;6.996;2024-03-23T09:01:08;8.30;99.90
46976;DHT22;32724;51.094;6.996;2024-03-23T09:03:34;8.60;99.90
46976;DHT22;32724;51.094;6.996;2024-03-23T09:06:00;9.00;99.90
46976;DHT22;32724;51.094;6.996;2024-03-23T09:08:27;9.20;99.90
46976;DHT22;32724;51.094;6.996;2024-03-23T09:10:52;9.10;99.90
46976;DHT22;32724;51.094;6.996;2024-03-23T09:13:18;9.10;99.90
46976;DHT22;32724;51.094;6.996;2024-03-23T09:15:51;9.00;99.90
46976;DHT22;32724;51.094;6.996;2024-03-23T09:18:17;9.00;99.90
46976;DHT22;32724;51.094;6.996;2024-03-23T09:20:43;9.00;99.90
46976;DHT22;32724;51.094;6.996;2024-03-23T09:23:08;9.10;99.90
46976;DHT22;32724;51.094;6.996;2024-03-23T09:25:38;9.20;99.90
46976;DHT22;32724;51.094;6.996;2024-03-23T09:28:04;9.10;99.90
46976;DHT22;32724;51.094;6.996;2024-03-23T09:30:31;8.90;99.90
46976;DHT22;32724;51.094;6.996;2024-03-23T09:32:57;8.70;99.90
46976;DHT22;32724;51.094;6.996;2024-03-23T09:35:22;8.90;99.90
46976;DHT22;32724;51.094;6.996;2024-03-23T09:37:48;9.20;99.90
46976;DHT22;32724;51.094;6.996;2024-03-23T09:40:13;9.00;99.90
46976;DHT22;32724;51.094;6.996;2024-03-23T09:42:40;8.70;99.90
46976;DHT22;32724;51.094;6.996;2024-03-23T09:45:06;8.50;99.90
46976;DHT22;32724;51.094;6.996;2024-03-23T09:47:37;8.30;99.90
46976;DHT22;32724;51.094;6.996;2024-03-23T09:50:03;8.30;99.90
46976;DHT22;32724;51.094;6.996;2024-03-23T09:52:30;8.50;99.90
46976;DHT22;32724;51.094;6.996;2024-03-23T09:54:55;8.60;99.90
46976;DHT22;32724;51.094;6.996;2024-03-23T09:57:21;8.70;99.90
46976;DHT22;32724;51.094;6.996;2024-03-23T09:59:46;9.00;99.90
46976;DHT22;32724;51.094;6.996;2024-03-23T10:02:13;9.00;99.90
46976;DHT22;32724;51.094;6.996;2024-03-23T10:04:42;9.30;99.90
46976;DHT22;32724;51.094;6.996;2024-03-23T10:07:21;9.50;99.90
46976;DHT22;32724;51.094;6.996;2024-03-23T10:09:50;9.60;99.90
46976;DHT22;32724;51.094;6.996;2024-03-23T10:12:18;9.80;99.90
46976;DHT22;32724;51.094;6.996;2024-03-23T10:14:44;9.50;99.90
46976;DHT22;32724;51.094;6.996;2024-03-23T10:17:16;9.60;99.90
46976;DHT22;32724;51.094;6.996;2024-03-23T10:19:46;9.60;99.90
46976;DHT22;32724;51.094;6.996;2024-03-23T10:22:23;9.70;99.90
46976;DHT22;32724;51.094;6.996;2024-03-23T10:24:50;9.50;99.90
46976;DHT22;32724;51.094;6.996;2024-03-23T10:27:17;9.20;99.90
46976;DHT22;32724;51.094;6.996;2024-03-23T10:29:44;9.20;99.90
46976;DHT22;32724;51.094;6.996;2024-03-23T10:32:14;9.30;99.90
46976;DHT22;32724;51.094;6.996;2024-03-23T10:34:40;9.30;99.90
46976;DHT22;32724;51.094;6.996;2024-03-23T10:37:07;9.20;99.90
46976;DHT22;32724;51.094;6.996;2024-03-23T10:39:43;9.30;99.90
46976;DHT22;32724;51.094;6.996;2024-03-23T10:42:09;9.50;99.90
46976;DHT22;32724;51.094;6.996;2024-03-23T10:44:38;9.30;99.90
46976;DHT22;32724;51.094;6.996;2024-03-23T10:47:05;9.20;99.90
46976;DHT22;32724;51.094;6.996;2024-03-23T10:49:32;9.10;99.90
46976;DHT22;32724;51.094;6.996;2024-03-23T10:52:03;9.20;99.90
46976;DHT22;32724;51.094;6.996;2024-03-23T10:54:30;9.10;99.90
46976;DHT22;32724;51.094;6.996;2024-03-23T10:57:09;9.10;99.90
46976;DHT22;32724;51.094;6.996;2024-03-23T10:59:37;9.20;99.90
46976;DHT22;32724;51.094;6.996;2024-03-23T11:02:03;9.30;99.90
46976;DHT22;32724;51.094;6.996;2024-03-23T11:04:38;9.20;99.90
46976;DHT22;32724;51.094;6.996;2024-03-23T11:07:32;9.10;99.90
46976;DHT22;32724;51.094;6.996;2024-03-23T11:09:59;8.80;99.90
46976;DHT22;32724;51.094;6.996;2024-03-23T11:12:27;8.20;99.90
46976;DHT22;32724;51.094;6.996;2024-03-23T11:14:57;7.70;99.90
46976;DHT22;32724;51.094;6.996;2024-03-23T11:17:25;7.40;99.90
46976;DHT22;32724;51.094;6.996;2024-03-23T11:20:04;7.20;99.90
46976;DHT22;32724;51.094;6.996;2024-03-23T11:22:47;6.90;99.90
46976;DHT22;32724;51.094;6.996;2024-03-23T11:25:26;6.60;99.90
46976;DHT22;32724;51.094;6.996;2024-03-23T11:28:11;6.40;99.90
46976;DHT22;32724;51.094;6.996;2024-03-23T11:30:37;6.40;99.90
46976;DHT22;32724;51.094;6.996;2024-03-23T11:33:05;6.30;99.90
46976;DHT22;32724;51.094;6.996;2024-03-23T11:35:37;6.30;99.90
46976;DHT22;32724;51.094;6.996;2024-03-23T11:40:32;6.60;99.90
46976;DHT22;32724;51.094;6.996;2024-03-23T11:43:00;7.00;99.90
46976;DHT22;32724;51.094;6.996;2024-03-23T11:45:26;7.80;99.90
46976;DHT22;32724;51.094;6.996;2024-03-23T11:48:08;8.30;99.90
46976;DHT22;32724;51.094;6.996;2024-03-23T11:50:37;8.80;99.90
46976;DHT22;32724;51.094;6.996;2024-03-23T11:53:07;9.00;99.90
46976;DHT22;32724;51.094;6.996;2024-03-23T11:55:42;9.20;99.90
46976;DHT22;32724;51.094;6.996;2024-03-23T11:58:09;9.30;99.90
46976;DHT22;32724;51.094;6.996;2024-03-23T12:00:35;9.50;99.90
46976;DHT22;32724;51.094;6.996;2024-03-23T12:03:02;9.60;99.90
46976;DHT22;32724;51.094;6.996;2024-03-23T12:05:28;9.60;99.90
46976;DHT22;32724;51.094;6.996;2024-03-23T12:07:54;9.60;99.90
46976;DHT22;32724;51.094;6.996;2024-03-23T12:10:20;9.70;99.90
46976;DHT22;32724;51.094;6.996;2024-03-23T12:12:46;9.60;99.90
46976;DHT22;32724;51.094;6.996;2024-03-23T12:15:11;9.90;99.90
46976;DHT22;32724;51.094;6.996;2024-03-23T12:17:38;10.20;99.90
46976;DHT22;32724;51.094;6.996;2024-03-23T12:20:04;10.60;99.90
46976;DHT22;32724;51.094;6.996;2024-03-23T12:22:30;10.50;99.90
46976;DHT22;32724;51.094;6.996;2024-03-23T12:24:56;9.00;99.90
46976;DHT22;32724;51.094;6.996;2024-03-23T12:27:22;8.10;99.90
46976;DHT22;32724;51.094;6.996;2024-03-23T12:29:48;7.80;99.90
46976;DHT22;32724;51.094;6.996;2024-03-23T12:32:14;7.80;99.90
46976;DHT22;32724;51.094;6.996;2024-03-23T12:34:40;8.10;99.90
46976;DHT22;32724;51.094;6.996;2024-03-23T12:37:07;8.10;99.90
46976;DHT22;32724;51.094;6.996;2024-03-23T12:39:33;8.10;99.90
46976;DHT22;32724;51.094;6.996;2024-03-23T12:42:00;8.00;99.90
46976;DHT22;32724;51.094;6.996;2024-03-23T12:44:26;8.00;99.90
46976;DHT22;32724;51.094;6.996;2024-03-23T12:46:51;8.10;99.90
46976;DHT22;32724;51.094;6.996;2024-03-23T12:49:17;7.90;99.90
46976;DHT22;32724;51.094;6.996;2024-03-23T12:51:53;7.40;99.90
46976;DHT22;32724;51.094;6.996;2024-03-23T12:54:19;6.70;99.90
46976;DHT22;32724;51.094;6.996;2024-03-23T12:56:46;6.00;99.90
46976;DHT22;32724;51.094;6.996;2024-03-23T12:59:11;6.00;99.90
46976;DHT22;32724;51.094;6.996;2024-03-23T13:01:38;6.00;99.90
46976;DHT22;32724;51.094;6.996;2024-03-23T13:04:04;6.20;99.90
46976;DHT22;32724;51.094;6.996;2024-03-23T13:06:29;6.60;99.90
46976;DHT22;32724;51.094;6.996;2024-03-23T13:09:02;7.00;99.90
46976;DHT22;32724;51.094;6.996;2024-03-23T13:11:29;7.10;99.90
46976;DHT22;32724;51.094;6.996;2024-03-23T13:13:55;7.30;99.90
46976;DHT22;32724;51.094;6.996;2024-03-23T13:16:20;7.50;99.90
46976;DHT22;32724;51.094;6.996;2024-03-23T13:18:46;7.60;99.90
46976;DHT22;32724;51.094;6.996;2024-03-23T13:21:11;7.70;99.90
46976;DHT22;32724;51.094;6.996;2024-03-23T13:23:37;7.90;99.90
46976;DHT22;32724;51.094;6.996;2024-03-23T13:26:05;8.10;99.90
46976;DHT22;32724;51.094;6.996;2024-03-23T13:28:30;8.10;99.90
46976;DHT22;32724;51.094;6.996;2024-03-23T13:30:56;8.20;99.90
46976;DHT22;32724;51.094;6.996;2024-03-23T13:33:29;8.40;99.90
46976;DHT22;32724;51.094;6.996;2024-03-23T13:35:55;8.50;99.90
46976;DHT22;32724;51.094;6.996;2024-03-23T13:38:21;8.80;99.90
46976;DHT22;32724;51.094;6.996;2024-03-23T13:40:53;9.10;99.90
46976;DHT22;32724;51.094;6.996;2024-03-23T13:43:19;9.20;99.90
46976;DHT22;32724;51.094;6.996;2024-03-23T13:45:47;8.90;99.90
46976;DHT22;32724;51.094;6.996;2024-03-23T13:48:13;8.60;99.90
46976;DHT22;32724;51.094;6.996;2024-03-23T13:50:39;8.30;99.90
46976;DHT22;32724;51.094;6.996;2024-03-23T13:53:05;8.00;99.90
46976;DHT22;32724;51.094;6.996;2024-03-23T13:55:31;7.90;99.90
46976;DHT22;32724;51.094;6.996;2024-03-23T13:57:57;7.80;99.90
46976;DHT22;32724;51.094;6.996;2024-03-23T14:00:23;7.80;99.90
46976;DHT22;32724;51.094;6.996;2024-03-23T14:02:48;8.00;99.90
46976;DHT22;32724;51.094;6.996;2024-03-23T14:05:14;8.10;99.90
46976;DHT22;32724;51.094;6.996;2024-03-23T14:07:40;8.00;99.90
46976;DHT22;32724;51.094;6.996;2024-03-23T14:10:06;8.00;99.90
46976;DHT22;32724;51.094;6.996;2024-03-23T14:12:37;8.00;99.90
46976;DHT22;32724;51.094;6.996;2024-03-23T14:15:06;8.20;99.90
46976;DHT22;32724;51.094;6.996;2024-03-23T14:17:32;8.40;99.90
46976;DHT22;32724;51.094;6.996;2024-03-23T14:19:58;8.50;99.90
46976;DHT22;32724;51.094;6.996;2024-03-23T14:22:27;8.70;99.90
46976;DHT22;32724;51.094;6.996;2024-03-23T14:24:52;8.90;99.90
46976;DHT22;32724;51.094;6.996;2024-03-23T14:27:18;9.00;99.90
46976;DHT22;32724;51.094;6.996;2024-03-23T14:29:46;9.10;99.90
46976;DHT22;32724;51.094;6.996;2024-03-23T14:32:12;9.00;99.90
46976;DHT22;32724;51.094;6.996;2024-03-23T14:34:38;8.80;99.90
46976;DHT22;32724;51.094;6.996;2024-03-23T14:37:03;8.80;99.90
46976;DHT22;32724;51.094;6.996;2024-03-23T14:39:30;8.70;99.90
46976;DHT22;32724;51.094;6.996;2024-03-23T14:41:56;8.70;99.90
46976;DHT22;32724;51.094;6.996;2024-03-23T14:44:22;8.60;99.90
46976;DHT22;32724;51.094;6.996;2024-03-23T14:46:49;8.50;99.90
46976;DHT22;32724;51.094;6.996;2024-03-23T14:49:15;8.50;99.90
46976;DHT22;32724;51.094;6.996;2024-03-23T14:51:43;8.20;99.90
46976;DHT22;32724;51.094;6.996;2024-03-23T14:54:08;8.10;99.90
46976;DHT22;32724;51.094;6.996;2024-03-23T14:56:34;7.70;99.90
46976;DHT22;32724;51.094;6.996;2024-03-23T14:59:00;7.70;99.90
46976;DHT22;32724;51.094;6.996;2024-03-23T15:01:25;7.70;99.90
46976;DHT22;32724;51.094;6.996;2024-03-23T15:03:51;7.70;99.90
46976;DHT22;32724;51.094;6.996;2024-03-23T15:06:19;7.90;99.90
46976;DHT22;32724;51.094;6.996;2024-03-23T15:08:44;7.90;99.90
46976;DHT22;32724;51.094;6.996;2024-03-23T15:11:10;7.60;99.90
46976;DHT22;32724;51.094;6.996;2024-03-23T15:13:36;7.50;99.90
46976;DHT22;32724;51.094;6.996;2024-03-23T15:16:03;7.40;99.90
46976;DHT22;32724;51.094;6.996;2024-03-23T15:18:31;7.40;99.90
46976;DHT22;32724;51.094;6.996;2024-03-23T15:20:59;7.40;99.90
46976;DHT22;32724;51.094;6.996;2024-03-23T15:23:28;7.50;99.90
46976;DHT22;32724;51.094;6.996;2024-03-23T15:25:55;7.50;99.90
46976;DHT22;32724;51.094;6.996;2024-03-23T15:28:21;7.80;99.90
46976;DHT22;32724;51.094;6.996;2024-03-23T15:30:48;8.20;99.90
46976;DHT22;32724;51.094;6.996;2024-03-23T15:33:13;8.50;99.90
46976;DHT22;32724;51.094;6.996;2024-03-23T15:35:39;8.70;99.90
46976;DHT22;32724;51.094;6.996;2024-03-23T15:38:04;8.90;99.90
46976;DHT22;32724;51.094;6.996;2024-03-23T15:40:30;8.90;99.90
46976;DHT22;32724;51.094;6.996;2024-03-23T15:42:55;9.00;99.90
46976;DHT22;32724;51.094;6.996;2024-03-23T15:45:21;8.90;99.90
46976;DHT22;32724;51.094;6.996;2024-03-23T15:47:47;8.90;99.90
46976;DHT22;32724;51.094;6.996;2024-03-23T15:50:13;8.90;99.90
46976;DHT22;32724;51.094;6.996;2024-03-23T15:52:38;8.80;99.90
46976;DHT22;32724;51.094;6.996;2024-03-23T15:55:04;8.70;99.90
46976;DHT22;32724;51.094;6.996;2024-03-23T15:57:34;8.50;99.90
46976;DHT22;32724;51.094;6.996;2024-03-23T16:00:00;8.30;99.90
46976;DHT22;32724;51.094;6.996;2024-03-23T16:02:26;8.20;99.90
46976;DHT22;32724;51.094;6.996;2024-03-23T16:04:53;8.10;99.90
46976;DHT22;32724;51.094;6.996;2024-03-23T16:07:19;7.90;99.90
46976;DHT22;32724;51.094;6.996;2024-03-23T16:09:44;7.80;99.90
46976;DHT22;32724;51.094;6.996;2024-03-23T16:12:10;7.70;99.90
46976;DHT22;32724;51.094;6.996;2024-03-23T16:14:35;7.70;99.90
46976;DHT22;32724;51.094;6.996;2024-03-23T16:17:01;7.70;99.90
46976;DHT22;32724;51.094;6.996;2024-03-23T16:19:26;7.70;99.90
46976;DHT22;32724;51.094;6.996;2024-03-23T16:21:52;7.70;99.90
46976;DHT22;32724;51.094;6.996;2024-03-23T16:24:17;7.70;99.90
46976;DHT22;32724;51.094;6.996;2024-03-23T16:26:43;7.80;99.90
46976;DHT22;32724;51.094;6.996;2024-03-23T16:29:11;7.60;99.90
46976;DHT22;32724;51.094;6.996;2024-03-23T16:31:36;7.40;99.90
46976;DHT22;32724;51.094;6.996;2024-03-23T16:34:02;7.40;99.90
46976;DHT22;32724;51.094;6.996;2024-03-23T16:36:27;7.40;99.90